Paradise Valley, Nevada Weather observations

Data are for 10 minute period ending at time listed.
 Day   Time   Solar   Ave.   Ave.  Ave.  Vector  Max.   Baro.   Total    
  of    of     Rad.   Air    Rel.  Wind   Wind   Wind  Press.  Precip.   
Year   Day            Temp.  Hum.  Speed  Dir.   Gust                    
2016   (PST)  Kw/m2    F      %     mph   deg.    mph    mb.     in.     
-------------------------------------------------------------------------
 268    8:00   0.40   54.4    56    0.3    54     1.6   873.4    0.00 
 268    8:10   0.44   55.4    54    1.7    68     5.7   873.4    0.00 
 268    8:20   0.48   54.2    56    4.1    94     6.7   873.7    0.00 
 268    8:30   0.51   54.2    57    3.8    92     6.1   873.8    0.00 
 268    8:40   0.54   55.5    54    2.7   129     5.6   873.8    0.00 
 268    8:50   0.57   56.4    51    3.2   142     6.1   873.8    0.00 
 268    9:00   0.60   57.8    48    3.1   157     6.4   873.9    0.00 
 268    9:10   0.62   58.5    47    2.9   235     6.2   874.0    0.00 
 268    9:20   0.65   59.0    46    2.1   230     6.3   874.0    0.00 
 268    9:30   0.67   59.8    43    2.4   135     6.7   874.1    0.00 
 268    9:40   0.69   59.3    43    4.3   132     8.3   874.1    0.00 
 268    9:50   0.72   60.0    43    4.0   119     6.7   874.2    0.00 
 268   10:00   0.74   60.0    42    5.4   102     9.1   874.3    0.00 
 268   10:10   0.76   60.2    41    4.4   103     9.8   874.4    0.00 
 268   10:20   0.77   61.2    39    4.7    94     9.5   874.4    0.00 
 268   10:30   0.79   61.8    37    4.5    61    10.2   874.5    0.00 
 268   10:40   0.80   61.8    37    4.5    76     9.5   874.6    0.00 
 268   10:50   0.81   61.8    37    5.1    77     8.9   874.7    0.00 
 268   11:00   0.82   62.3    36    4.2    71     9.4   874.7    0.00 
 268   11:10   0.83   62.5    36    3.0    17     6.5   874.6    0.00 
 268   11:20   0.84   63.4    34    4.7    44     9.6   874.5    0.00 
 268   11:30   0.84   63.1    34    5.3    28    10.9   874.5    0.00 
 268   11:40   0.85   63.8    32    2.8   348     6.1   874.5    0.00 
 268   11:50   0.84   64.7    31    4.1    14    10.5   874.4    0.00 
 268   12:00   0.84   64.6    31    4.3     1     8.2   874.4    0.00 
 268   12:10   0.84   65.4    30    4.8    49    10.7   874.3    0.00 
 268   12:20   0.83   65.0    30    3.9   351     9.1   874.3    0.00 
 268   12:30   0.82   65.7    28    3.0    80     6.4   874.1    0.00 
 268   12:40   0.81   66.2    27    3.5   102     8.3   874.1    0.00 
 268   12:50   0.80   66.7    27    4.1   157     8.7   874.1    0.00 
 268   13:00   0.79   67.3    26    3.0   156     7.2   874.1    0.00 
 268   13:10   0.78   66.5    27    5.3   137     9.3   874.1    0.00 
 268   13:20   0.76   67.5    25    4.1   162     8.8   874.1    0.00 
 268   13:30   0.74   68.3    24    2.3   167     5.4   874.1    0.00 
 268   13:40   0.73   68.6    24    2.9   200     7.2   874.1    0.00 
 268   13:50   0.71   68.6    24    3.6   136     8.9   874.0    0.00 
 268   14:00   0.68   68.3    24    3.2    89     7.3   874.0    0.00 
 268   14:10   0.67   69.9    17    6.9   326    12.9   874.0    0.00 
 268   14:20   0.64   69.6    16    7.5   316    14.8   873.9    0.00 
 268   14:30   0.61   70.0    17    8.1   300    13.4   873.8    0.00 
 268   14:40   0.59   70.1    17    9.0   347    14.7   873.9    0.00 
 268   14:50   0.56   69.8    18    7.0   353    12.3   873.8    0.00 
 268   15:00   0.53   70.0    18    7.6   346    12.6   873.8    0.00 
 268   15:10   0.49   70.0    17    8.6   349    14.2   873.7    0.00 
 268   15:20   0.46   70.1    17    8.6   348    13.3   873.8    0.00 
 268   15:30   0.43   70.4    16    7.8   337    15.8   873.8    0.00 
 268   15:40   0.40   70.4    16    8.1   318    13.1   873.8    0.00 
 268   15:50   0.36   70.7    16    7.6   319    12.5   873.9    0.00 
 268   16:00   0.33   70.4    16    9.2   308    14.7   874.0    0.00 
 268   16:10   0.30   70.4    16    9.3   303    13.2   874.1    0.00 
 268   16:20   0.26   70.1    17    9.3   306    14.3   874.1    0.00 
 268   16:30   0.23   69.8    18    8.7   308    14.0   874.2    0.00 
 268   16:40   0.19   69.4    18    8.7   300    12.3   874.1    0.00 
 268   16:50   0.16   68.9    18    8.2   310    11.8   874.1    0.00 
 268   17:00   0.13   68.0    20    7.1   311    10.1   874.1    0.00 
 268   17:10   0.10   67.2    21    6.6   318     8.6   874.1    0.00 
 268   17:20   0.02   64.7    24    6.1   310     7.2   874.2    0.00 
 268   17:30   0.01   62.1    30    5.4   306     6.4   874.2    0.00 
 268   17:40   0.01   60.4    32    4.7   307     6.2   874.1    0.00 
 268   17:50   0.01   60.6    29    4.1   318     6.6   873.9    0.00 
 268   18:00   0.00   61.5    28    3.9   307     6.5   873.8    0.00 
 268   18:10   0.00   59.9    29    4.5   300     5.6   873.9    0.00 
 268   18:20   0.00   59.3    29    3.6   294     6.1   874.0    0.00 
 268   18:30   0.00   57.8    27    3.8   275     4.6   874.0    0.00 
 268   18:40   0.00   58.0    28    4.5   291     7.4   873.9    0.00 
 268   18:50   0.00   59.6    30    5.1   305     7.7   874.0    0.00 
 268   19:00   0.00   58.4    32    5.1   297     6.4   874.1    0.00 
 268   19:10   0.00   56.7    30    4.7   280     5.4   874.2    0.00 
 268   19:20   0.00   55.8    29    4.2   277     5.2   874.3    0.00 
 268   19:30   0.00   54.1    31    3.6   269     5.0   874.4    0.00 
 268   19:40   0.00   53.1    33    4.9   244     5.5   874.3    0.00 
 268   19:50   0.00   53.8    32    4.3   137     6.1   874.5    0.00 
 268   20:00   0.00   53.5    32    5.3   149     6.3   874.5    0.00 
 268   20:10   0.00   51.3    35    4.9   144     5.7   874.7    0.00 
 268   20:20   0.00   50.1    37    4.6   139     6.1   874.8    0.00 
 268   20:30   0.00   48.8    37    1.4   147     4.4   875.0    0.00 
 268   20:40   0.00   50.0    36    0.9   190     2.4   875.3    0.00 
 268   20:50   0.00   49.6    36    4.8   266     6.5   875.5    0.00 
 268   21:00   0.00   48.1    38    4.3   257     6.3   875.5    0.00 
 268   21:10   0.00   48.5    38    3.4   261     4.6   875.6    0.00 
 268   21:20   0.00   47.9    39    3.3   283     4.7   875.7    0.00 
 268   21:30   0.00   49.7    35    0.4   310     2.5   875.8    0.00 
 268   21:40   0.00   51.0    33    1.8   284     3.4   875.9    0.00 
 268   21:50   0.00   51.2    32    1.5   305     2.7   876.0    0.00 
 268   22:00   0.00   49.9    35    2.8   321     5.2   876.0    0.00 
 268   22:10   0.00   48.4    46    3.3   346     6.1   876.1    0.00 
 268   22:20   0.00   47.7    49    5.4   335     6.9   876.1    0.00 
 268   22:30   0.00   48.0    42    5.0   315     6.3   876.2    0.00 
 268   22:40   0.00   49.9    36    4.5   321     5.7   876.2    0.00 
 268   22:50   0.00   51.0    38    5.0   340     6.5   876.3    0.00 
 268   23:00   0.00   51.1    34    4.0   328     5.4   876.4    0.00 
 268   23:10   0.00   50.1    35    1.5     8     4.0   876.4    0.00 
 268   23:20   0.00   50.3    34    0.3    10     2.4   876.5    0.00 
 268   23:30   0.00   51.4    36    4.7   351     7.8   876.5    0.00 
 268   23:40   0.00   48.5    44    4.7     7     6.9   876.6    0.00 
 268   23:50   0.00   47.6    42    3.6    38     6.9   876.6    0.00 
 269    0:00   0.00   42.6    49    4.2    57     6.3   876.7    0.00 
 269    0:10   0.00   41.3    52    2.3    44     5.8   876.8    0.00 
 269    0:20   0.00   41.7    50    1.6   177     6.9   876.9    0.00 
 269    0:30   0.00   42.6    48    0.9   262     3.3   876.9    0.00 
 269    0:40   0.00   40.3    52    4.6   246     6.0   877.1    0.00 
 269    0:50   0.00   40.2    51    0.9   261     2.9   877.1    0.00 
 269    1:00   0.00   40.6    50    1.3   261     2.9   877.2    0.00 
 269    1:10   0.00   41.9    47    3.0   263     3.9   877.3    0.00 
 269    1:20   0.00   41.2    49    2.2   271     4.4   877.4    0.00 
 269    1:30   0.00   43.6    43    1.5   273     2.0   877.4    0.00 
 269    1:40   0.00   44.0    42    0.2   273     1.1   877.3    0.00 
 269    1:50   0.00   43.3    43    1.3   257     4.2   877.3    0.00 
 269    2:00   0.00   40.2    53    2.5   158     3.8   877.3    0.00 
 269    2:10   0.00   41.3    52    3.2   180     4.2   877.2    0.00 
 269    2:20   0.00   40.3    56    5.3   169     7.5   877.2    0.00 
 269    2:30   0.00   39.9    55    3.0   156     5.4   877.3    0.00 
 269    2:40   0.00   40.4    51    0.9   216     2.7   877.2    0.00 
 269    2:50   0.00   38.7    54    2.3   271     2.9   877.2    0.00 
 269    3:00   0.00   38.1    53    2.4   274     3.2   877.3    0.00 
 269    3:10   0.00   38.3    52    1.5   294     2.7   877.4    0.00 
 269    3:20   0.00   38.9    54    2.2   325     2.8   877.5    0.00 
 269    3:30   0.00   38.0    52    2.5   308     3.2   877.5    0.00 
 269    3:40   0.00   37.8    52    2.7   284     4.6   877.5    0.00 
 269    3:50   0.00   36.6    54    5.3   228     6.5   877.5    0.00 
 269    4:00   0.00   36.1    53    4.4   244     5.6   877.5    0.00 
 269    4:10   0.00   35.3    53    3.9   228     4.7   877.5    0.00 
 269    4:20   0.00   35.9    56    4.8   200     5.6   877.5    0.00 
 269    4:30   0.00   36.5    57    2.1   214     3.7   877.6    0.00 
 269    4:40   0.00   35.9    59    2.1   195     3.7   877.7    0.00 
 269    4:50   0.00   36.6    60    3.6   163     4.2   877.8    0.00 
 269    5:00   0.00   38.7    52    3.6   167     4.4   877.8    0.00 
 269    5:10   0.00   39.6    47    2.3   189     3.1   877.8    0.00 
 269    5:20   0.00   39.9    45    2.0   196     2.6   877.9    0.00 
 269    5:30   0.00   39.8    46    0.6   196     1.8   878.0    0.00 
 269    5:40   0.00   37.5    51    0.8   196     1.2   878.1    0.00 
 269    5:50   0.01   35.4    54    2.8   247     4.5   878.2    0.00 
 269    6:00   0.02   35.7    53    3.4   276     4.2   878.3    0.00 
 269    6:10   0.05   35.8    54    2.7   305     3.2   878.4    0.00 
 269    6:20   0.08   38.0    54    2.7   315     3.2   878.3    0.00 
 269    6:30   0.10   40.3    54    2.1   307     2.8   878.3    0.00 
 269    6:40   0.13   41.6    50    3.0   332     4.5   878.4    0.00 
 269    6:50   0.17   42.5    48    2.0   352     2.9   878.5    0.00 
 269    7:00   0.20   43.6    42    1.4    14     2.2   878.5    0.00 
 269    7:10   0.23   44.4    39    2.1    55     3.5   878.5    0.00 
 269    7:20   0.27   44.5    40    3.2    47     4.0   878.5    0.00 
 269    7:30   0.31   45.6    41    2.5    25     4.1   878.5    0.00 
 269    7:40   0.35   47.3    37    2.8    37     4.6   878.6    0.00 
 269    7:50   0.38   48.6    37    1.6    46     3.7   878.6    0.00 

Return to Paradise Valley graphs page.


Western Regional Climate Center,wrcc@dri.edu